• Join FlightAware (Why Join?)
  • Login
  • US Flag 
08:06PM EDT


 

Airport Tracker/Info


-or-


 

Live Flight TrackerFlight Track Log ✈ N588AC ✈ 17-Apr-2013 ✈ KBKL - KBCB

Flight Track Log - Related Links

Times and Time Zones

All times are in EDT time to prevent confusion due to time zone crossing. See the N588AC flight status page for this flight to view local times or setup timezone preferences in your user account.

Time Position Orientation Groundspeed Altitude Reporting Facility
EDT Latitude Longitude Course Direction KTS MPH feet Rate Location/Type
08:50PM 41.5233 -81.6758 35° Northeast 165 190 1,000  Level Cleveland Center
08:52PM 41.5969 -81.6078 35° Northeast 228 262 3,100 1,140 Climbing Cleveland Center
08:53PM 41.5744 -81.5436 115° Southeast 224 258 4,000 1,140 Climbing Cleveland Center
08:54PM 41.5250 -81.4900 141° Southeast 219 252 5,400 1,200 Climbing Cleveland Center
08:55PM 41.4542 -81.4558 160° South 234 269 6,400 1,380 Climbing Cleveland Center
08:56PM 41.3919 -81.4411 170° South 241 277 8,200 1,800 Climbing Cleveland Center
08:57PM 41.3189 -81.4347 176° South 254 292 10,000 1,800 Climbing Cleveland Center
08:58PM 41.2808 -81.5086 236° Southwest 226 260 11,800 1,560 Climbing Cleveland Center
08:59PM 41.2406 -81.5992 239° Southwest 254 292 13,200 1,320 Climbing Cleveland Center
09:00PM 41.1814 -81.6811 226° Southwest 279 321 14,500 1,680 Climbing Cleveland Center
09:01PM 41.1181 -81.7489 219° Southwest 296 341 16,600 1,680 Climbing Cleveland Center
09:02PM 41.0589 -81.8306 226° Southwest 310 357 17,900 1,080 Climbing Cleveland Center
09:03PM 40.9911 -81.9256 227° Southwest 317 365 18,800 1,080 Climbing Cleveland Center
09:04PM 40.9294 -82.0150 228° Southwest 329 379 20,100 1,440 Climbing Cleveland Center
09:06PM 40.7650 -82.1444 211° Southwest 323 372 23,400 1,380 Climbing Indianapolis Center
09:07PM 40.6842 -82.2019 208° Southwest 326 375 24,600 1,080 Climbing Indianapolis Center
09:08PM 40.6022 -82.2631 210° Southwest 335 386 25,700 1,080 Climbing Indianapolis Center
09:09PM 40.5203 -82.3239 209° Southwest 336 387 26,900 1,020 Climbing Indianapolis Center
09:10PM 40.4222 -82.3261 181° South 364 419 27,900 1,020 Climbing Indianapolis Center
09:11PM 40.3269 -82.2719 157° South 372 428 29,000 1,140 Climbing Indianapolis Center
09:12PM 40.2258 -82.2092 155° Southeast 376 433 30,300 1,320 Climbing Indianapolis Center
09:13PM 40.1317 -82.1497 154° Southeast 372 428 31,800 1,260 Climbing Indianapolis Center
09:14PM 40.0392 -82.0919 154° Southeast 365 420 32,900 540 Climbing Indianapolis Center
09:15PM 39.9417 -82.0314 155° Southeast 382 440 33,000  Climbing Indianapolis Center
09:16PM 39.8378 -81.9675 155° Southeast 405 466 33,000  Level Indianapolis Center
09:17PM 39.7319 -81.9019 155° Southeast 415 478 33,000  Level Indianapolis Center
09:18PM 39.6331 -81.8408 155° Southeast 421 484 33,000  Level Indianapolis Center
09:19PM 39.5086 -81.7639 154° Southeast 414 476 33,000  Level Indianapolis Center
09:20PM 39.4056 -81.7019 155° Southeast 408 470 33,000  Level Indianapolis Center
09:21PM 39.3025 -81.6392 155° Southeast 408 470 33,000  Level Indianapolis Center
09:22PM 39.2003 -81.5758 154° Southeast 405 466 33,000  Level Indianapolis Center
09:23PM 39.0981 -81.5142 155° Southeast 403 464 33,000  Level Indianapolis Center
09:24PM 38.9953 -81.4531 155° Southeast 403 464 33,000  Level Indianapolis Center
09:25PM 38.8914 -81.3900 155° Southeast 408 470 33,000  Level Indianapolis Center
09:26PM 38.7864 -81.3275 155° Southeast 408 470 33,000  Level Indianapolis Center
09:27PM 38.6808 -81.2647 155° Southeast 409 471 33,000  Level Indianapolis Center
09:28PM 38.5764 -81.2022 155° Southeast 408 470 33,000 -420 Level Indianapolis Center
09:29PM 38.4717 -81.1417 156° South 411 473 32,200 -1,080 Descending Indianapolis Center
09:30PM 38.3761 -81.0850 155° Southeast 382 440 30,800 -1,680 Descending Indianapolis Center
09:31PM 38.2889 -81.0331 155° Southeast 349 402 28,800 -2,280 Descending Indianapolis Center
09:32PM 38.1964 -80.9789 155° Southeast 361 415 26,200 -2,340 Descending Indianapolis Center
09:33PM 38.0989 -80.9219 155° Southeast 382 440 24,100 -2,040 Descending Indianapolis Center
09:34PM 38.0033 -80.8661 155° Southeast 377 434 22,100 -1,920 Descending Indianapolis Center
09:35PM 37.9092 -80.8128 156° South 371 427 20,200 -1,920 Descending Indianapolis Center
09:36PM 37.7994 -80.7536 157° South 365 420 18,200 -1,740 Descending Washington Center
09:37PM 37.7139 -80.7031 155° Southeast 354 407 16,700 -1,620 Descending Washington Center
09:38PM 37.6283 -80.6528 155° Southeast 348 400 15,000 -2,400 Descending Washington Center
09:39PM 37.5525 -80.6217 162° South 325 374 12,000 -3,120 Descending Washington Center
09:40PM 37.4869 -80.5911 160° South 295 339 8,800 -2,580 Descending Washington Center
09:41PM 37.4214 -80.5658 163° South 266 306 6,900 -1,740 Descending Washington Center
09:42PM 37.3556 -80.5406 163° South 251 289 5,400 -960 Descending Washington Center
09:43PM 37.2942 -80.5131 160° South 231 266 5,000 -720 Descending Washington Center
09:44PM 37.2492 -80.4894 157° South 200 230 4,000 -1,200 Descending Washington Center
09:45PM 37.2236 -80.4539 132° Southeast 165 190 2,700 -1,320 Descending Washington Center